createdAt,value
2019-04-14T00:00:40.488Z,43.37
2019-04-14T00:03:17.284Z,43.93
2019-04-14T00:05:48.080Z,42.93
2019-04-14T00:08:17.661Z,46.27
2019-04-14T00:10:46.716Z,44.47
2019-04-14T00:13:15.659Z,44.17
2019-04-14T00:15:48.451Z,43.77
2019-04-14T00:18:15.020Z,44.17
2019-04-14T00:20:44.781Z,45.30
2019-04-14T00:23:13.630Z,43.40
2019-04-14T00:25:43.382Z,44.47
2019-04-14T00:28:12.396Z,46.20
2019-04-14T00:30:41.264Z,43.53
2019-04-14T00:33:14.930Z,44.70
2019-04-14T00:35:45.420Z,45.17
2019-04-14T00:38:19.516Z,43.87
2019-04-14T00:40:56.163Z,44.70
2019-04-14T00:43:29.207Z,45.40
2019-04-14T00:46:02.991Z,44.53
2019-04-14T00:48:34.199Z,43.40
2019-04-14T00:51:03.174Z,44.03
2019-04-14T00:53:32.067Z,46.40
2019-04-14T00:56:01.868Z,45.30
2019-04-14T00:58:30.794Z,44.27
2019-04-14T01:01:00.544Z,45.10
2019-04-14T01:03:29.431Z,44.47
2019-04-14T01:05:59.036Z,44.17
2019-04-14T01:08:27.836Z,44.70
2019-04-14T01:10:58.268Z,44.97
2019-04-14T01:13:27.345Z,44.73
2019-04-14T01:16:03.785Z,44.67
2019-04-14T01:18:27.591Z,44.17
2019-04-14T01:20:57.847Z,43.67
2019-04-14T01:23:26.856Z,45.20
2019-04-14T01:25:56.424Z,45.10
2019-04-14T01:28:26.489Z,45.07
2019-04-14T01:30:56.518Z,44.37
2019-04-14T01:33:25.501Z,44.37
2019-04-14T01:35:55.261Z,43.97
2019-04-14T01:38:25.436Z,41.90
2019-04-14T01:40:55.258Z,41.43
2019-04-14T01:43:25.565Z,46.00
2019-04-14T01:46:05.262Z,43.20
2019-04-14T01:48:25.753Z,44.50
2019-04-14T01:51:09.156Z,43.80
2019-04-14T01:53:48.831Z,44.80
2019-04-14T01:56:19.504Z,44.90
2019-04-14T01:58:49.806Z,42.77
2019-04-14T02:01:23.851Z,40.70
2019-04-14T02:03:54.082Z,43.03
2019-04-14T02:06:22.952Z,42.70
2019-04-14T02:08:52.211Z,42.73
2019-04-14T02:11:21.199Z,41.77
2019-04-14T02:13:50.829Z,41.47
2019-04-14T02:16:29.205Z,41.40
2019-04-14T02:18:52.247Z,40.90
2019-04-14T02:21:21.565Z,40.80
2019-04-14T02:23:51.775Z,41.37
2019-04-14T02:26:22.026Z,39.77
2019-04-14T02:28:50.838Z,41.13
2019-04-14T02:31:39.266Z,41.67
2019-04-14T02:36:50.673Z,40.23
2019-04-14T02:39:21.078Z,40.70
2019-04-14T02:44:24.174Z,37.90
2019-04-14T02:49:22.623Z,38.43
2019-04-14T02:51:49.787Z,37.63
2019-04-14T02:54:32.923Z,38.37
2019-04-14T02:56:52.967Z,38.50
2019-04-14T02:59:37.145Z,38.77
2019-04-14T03:04:19.736Z,38.17
2019-04-14T03:06:57.583Z,35.70
2019-04-14T03:09:30.487Z,38.07
2019-04-14T03:11:52.044Z,37.53
2019-04-14T03:14:21.412Z,35.97
2019-04-14T03:17:14.459Z,37.17
2019-04-14T03:19:35.511Z,36.30
2019-04-14T03:22:12.361Z,34.17
2019-04-14T03:24:32.891Z,36.10
2019-04-14T03:29:44.545Z,36.83
2019-04-14T03:32:23.284Z,34.53
2019-04-14T03:34:51.966Z,36.83
2019-04-14T03:39:49.772Z,34.73
2019-04-14T03:42:19.900Z,35.97
2019-04-14T03:44:54.509Z,35.40
2019-04-14T03:47:19.743Z,36.10
2019-04-14T03:49:45.024Z,34.67
2019-04-14T03:54:40.484Z,35.07
2019-04-14T03:56:55.472Z,33.93
2019-04-14T03:59:24.559Z,34.73
2019-04-14T04:01:54.425Z,35.00
2019-04-14T04:04:24.800Z,33.97
2019-04-14T04:06:53.795Z,36.10
2019-04-14T04:09:24.068Z,34.80
2019-04-14T04:11:54.030Z,33.43
2019-04-14T04:14:23.013Z,32.90
2019-04-14T04:16:57.196Z,34.03
2019-04-14T04:19:40.505Z,33.13
2019-04-14T04:22:28.145Z,31.80
2019-04-14T04:25:02.894Z,32.13
2019-04-14T04:27:33.588Z,34.03
2019-04-14T04:30:08.040Z,32.70
2019-04-14T04:32:44.807Z,33.00
2019-04-14T04:35:15.382Z,32.20
2019-04-14T04:37:49.738Z,31.90
2019-04-14T04:40:20.365Z,33.77
2019-04-14T04:42:50.420Z,32.37
2019-04-14T04:45:19.369Z,33.13
2019-04-14T04:47:49.096Z,31.40
2019-04-14T04:50:19.230Z,33.50
2019-04-14T04:52:48.155Z,31.97
2019-04-14T04:55:17.742Z,31.83
2019-04-14T04:57:46.650Z,31.53
2019-04-14T05:00:15.689Z,32.10
2019-04-14T05:02:44.510Z,32.20
2019-04-14T05:05:49.986Z,32.23
2019-04-14T05:08:19.564Z,33.13
2019-04-14T05:10:53.136Z,32.17
2019-04-14T05:13:22.673Z,31.00
2019-04-14T05:15:53.254Z,31.47
2019-04-14T05:18:22.328Z,30.53
2019-04-14T05:20:51.340Z,30.03
2019-04-14T05:23:21.207Z,31.37
2019-04-14T05:25:50.239Z,30.70
2019-04-14T05:28:19.879Z,31.10
2019-04-14T05:30:48.848Z,31.60
2019-04-14T05:33:18.552Z,31.27
2019-04-14T05:35:48.725Z,31.07
2019-04-14T05:38:17.655Z,32.13
2019-04-14T05:40:47.459Z,31.43
2019-04-14T05:43:28.271Z,30.67
2019-04-14T05:45:47.918Z,31.27
2019-04-14T05:48:18.158Z,32.20
2019-04-14T05:50:47.172Z,30.43
2019-04-14T05:53:15.825Z,29.80
2019-04-14T05:55:44.533Z,27.07
2019-04-14T05:58:14.302Z,26.73
2019-04-14T06:00:44.394Z,25.73
2019-04-14T06:03:14.480Z,25.77
2019-04-14T06:05:43.303Z,23.93
2019-04-14T06:08:12.129Z,22.23
2019-04-14T06:10:40.898Z,24.50
2019-04-14T06:13:11.687Z,22.50
2019-04-14T06:15:40.046Z,22.53
2019-04-14T06:18:08.887Z,21.53
2019-04-14T06:20:37.782Z,22.30
2019-04-14T06:23:06.611Z,21.80
2019-04-14T06:25:36.472Z,20.23
2019-04-14T06:28:05.602Z,19.83
2019-04-14T06:30:35.963Z,19.23
2019-04-14T06:33:15.578Z,18.27
2019-04-14T06:35:46.067Z,18.63
2019-04-14T06:38:16.518Z,18.27
2019-04-14T06:40:49.657Z,17.73
2019-04-14T06:43:18.786Z,18.37
2019-04-14T06:45:47.606Z,18.10
2019-04-14T06:48:16.541Z,19.03
2019-04-14T06:50:46.496Z,17.27
2019-04-14T06:53:15.967Z,17.80
2019-04-14T06:55:45.165Z,18.27
2019-04-14T06:58:14.168Z,18.43
2019-04-14T07:00:43.307Z,16.70
2019-04-14T07:03:12.376Z,16.63
2019-04-14T07:05:41.071Z,16.70
2019-04-14T07:08:10.070Z,16.97
2019-04-14T07:10:38.942Z,19.10
2019-04-14T07:13:07.720Z,17.40
2019-04-14T07:15:36.673Z,17.77
2019-04-14T07:18:05.527Z,18.53
2019-04-14T07:20:34.303Z,17.50
2019-04-14T07:23:03.217Z,18.63
2019-04-14T07:25:32.164Z,17.90
2019-04-14T07:28:01.084Z,18.00
2019-04-14T07:30:48.040Z,18.47
2019-04-14T07:33:24.101Z,17.43
2019-04-14T07:36:00.534Z,17.27
2019-04-14T07:38:45.660Z,17.10
2019-04-14T07:41:31.014Z,18.20
2019-04-14T07:44:01.386Z,17.83
2019-04-14T07:46:34.644Z,17.60
2019-04-14T07:49:14.153Z,16.83
2019-04-14T07:51:47.535Z,16.60
2019-04-14T07:54:33.244Z,15.37
2019-04-14T07:57:03.619Z,18.50
2019-04-14T07:59:33.991Z,16.93
2019-04-14T08:02:07.558Z,15.63
2019-04-14T08:04:37.937Z,15.70
2019-04-14T08:07:07.562Z,19.87
2019-04-14T08:09:36.356Z,14.90
2019-04-14T08:12:05.290Z,16.03
2019-04-14T08:14:34.031Z,15.37
2019-04-14T08:17:02.860Z,14.83
2019-04-14T08:19:31.620Z,15.57
2019-04-14T08:22:00.639Z,15.33
2019-04-14T08:24:29.389Z,15.97
2019-04-14T08:26:58.253Z,15.07
2019-04-14T08:29:27.031Z,15.80
2019-04-14T08:31:55.921Z,15.70
2019-04-14T08:34:24.667Z,14.63
2019-04-14T08:36:53.437Z,14.47
2019-04-14T08:39:22.367Z,14.37
2019-04-14T08:41:59.652Z,14.73
2019-04-14T08:44:35.544Z,14.10
2019-04-14T08:47:08.963Z,14.37
2019-04-14T08:49:39.370Z,14.87
2019-04-14T08:52:24.465Z,15.63
2019-04-14T08:55:04.216Z,14.90
2019-04-14T08:57:51.322Z,16.07
2019-04-14T09:00:30.859Z,14.97
2019-04-14T09:03:04.426Z,15.43
2019-04-14T09:05:37.626Z,15.87
2019-04-14T09:08:11.066Z,16.13
2019-04-14T09:10:41.551Z,14.70
2019-04-14T09:13:10.318Z,14.90
2019-04-14T09:15:39.059Z,15.23
2019-04-14T09:18:07.965Z,16.07
2019-04-14T09:20:36.642Z,15.17
2019-04-14T09:23:05.479Z,14.83
2019-04-14T09:25:34.261Z,15.77
2019-04-14T09:28:03.029Z,15.10
2019-04-14T09:30:32.292Z,15.67
2019-04-14T09:33:01.158Z,15.17
2019-04-14T09:35:30.030Z,14.37
2019-04-14T09:37:58.850Z,14.33
2019-04-14T09:40:27.644Z,15.47
2019-04-14T09:42:57.741Z,14.97
2019-04-14T09:45:26.709Z,14.37
2019-04-14T09:47:55.431Z,14.57
2019-04-14T09:50:24.268Z,15.30
2019-04-14T09:52:53.071Z,15.60
2019-04-14T09:55:23.502Z,15.37
2019-04-14T09:57:52.551Z,14.47
2019-04-14T10:00:22.020Z,14.87
2019-04-14T10:02:50.845Z,14.07
2019-04-14T10:05:19.717Z,14.33
2019-04-14T10:07:48.581Z,14.47
2019-04-14T10:10:17.458Z,15.33
2019-04-14T10:12:46.172Z,14.93
2019-04-14T10:15:15.235Z,15.20
2019-04-14T10:17:44.140Z,15.20
2019-04-14T10:20:13.049Z,15.00
2019-04-14T10:22:41.878Z,15.63
2019-04-14T10:25:10.804Z,15.23
2019-04-14T10:27:39.509Z,15.73
2019-04-14T10:30:08.289Z,16.10
2019-04-14T10:32:37.245Z,16.50
2019-04-14T10:35:06.463Z,16.10
2019-04-14T10:37:35.148Z,16.60
2019-04-14T10:40:06.203Z,16.97
2019-04-14T10:42:35.159Z,17.90
2019-04-14T10:45:04.776Z,17.13
2019-04-14T10:47:36.122Z,17.70
2019-04-14T10:50:06.402Z,17.70
2019-04-14T10:52:35.731Z,17.57
2019-04-14T10:55:08.250Z,16.87
2019-04-14T10:57:37.142Z,17.30
2019-04-14T11:00:09.921Z,16.47
2019-04-14T11:02:38.654Z,17.47
2019-04-14T11:05:08.344Z,16.73
2019-04-14T11:07:37.092Z,15.70
2019-04-14T11:10:10.282Z,16.40
2019-04-14T11:12:39.004Z,16.77
2019-04-14T11:15:08.964Z,16.77
2019-04-14T11:17:37.937Z,15.93
2019-04-14T11:20:08.562Z,16.67
2019-04-14T11:22:37.563Z,15.50
2019-04-14T11:25:07.210Z,13.87
2019-04-14T11:27:35.893Z,14.20
2019-04-14T11:30:08.369Z,14.07
2019-04-14T11:32:38.815Z,14.40
2019-04-14T11:35:12.468Z,14.43
2019-04-14T11:37:45.953Z,13.87
2019-04-14T11:40:19.431Z,14.50
2019-04-14T11:42:52.625Z,13.97
2019-04-14T11:45:18.972Z,13.87
2019-04-14T11:47:47.804Z,14.30
2019-04-14T11:50:17.015Z,14.37
2019-04-14T11:52:45.826Z,14.70
2019-04-14T11:55:14.559Z,15.87
2019-04-14T11:57:43.411Z,13.27
2019-04-14T12:00:16.653Z,15.80
2019-04-14T12:02:46.965Z,13.50
2019-04-14T12:05:29.531Z,14.03
2019-04-14T12:07:59.952Z,14.00
2019-04-14T12:10:28.942Z,14.27
2019-04-14T12:12:57.637Z,13.67
2019-04-14T12:15:26.334Z,14.30
2019-04-14T12:17:55.020Z,14.60
2019-04-14T12:20:23.824Z,13.87
2019-04-14T12:22:52.553Z,14.73
2019-04-14T12:25:21.464Z,13.67
2019-04-14T12:27:51.197Z,15.07
2019-04-14T12:30:20.237Z,13.77
2019-04-14T12:32:49.052Z,13.90
2019-04-14T12:35:18.195Z,14.63
2019-04-14T12:37:46.897Z,13.83
2019-04-14T12:40:16.022Z,14.13
2019-04-14T12:42:49.231Z,13.70
2019-04-14T12:45:34.907Z,13.73
2019-04-14T12:48:08.098Z,14.70
2019-04-14T12:50:44.635Z,17.47
2019-04-14T12:53:13.506Z,19.47
2019-04-14T12:55:42.240Z,13.33
2019-04-14T12:58:12.590Z,13.07
2019-04-14T13:00:48.806Z,13.07
2019-04-14T13:03:17.746Z,12.73
2019-04-14T13:05:46.595Z,12.43
2019-04-14T13:08:15.389Z,12.60
2019-04-14T13:10:44.176Z,12.40
2019-04-14T13:13:12.964Z,12.97
2019-04-14T13:15:41.723Z,13.90
2019-04-14T13:18:10.638Z,13.43
2019-04-14T13:20:39.547Z,13.03
2019-04-14T13:23:08.415Z,12.00
2019-04-14T13:25:37.143Z,15.40
2019-04-14T13:28:06.074Z,20.80
2019-04-14T13:30:36.550Z,19.00
2019-04-14T13:33:05.513Z,14.00
2019-04-14T13:35:34.352Z,16.10
2019-04-14T13:38:03.492Z,18.80
2019-04-14T13:40:32.292Z,14.17
2019-04-14T13:43:01.165Z,13.60
2019-04-14T13:45:30.129Z,13.10
2019-04-14T13:47:58.804Z,15.13
2019-04-14T13:50:27.538Z,15.50
2019-04-14T13:52:56.396Z,15.90
2019-04-14T13:55:25.174Z,20.07
2019-04-14T13:57:53.957Z,29.50
2019-04-14T14:00:23.589Z,18.83
2019-04-14T14:02:52.448Z,14.77
2019-04-14T14:05:21.431Z,12.47
2019-04-14T14:07:50.331Z,12.47
2019-04-14T14:10:19.230Z,12.00
2019-04-14T14:12:49.798Z,12.10
2019-04-14T14:15:29.675Z,11.97
2019-04-14T14:18:02.549Z,13.07
2019-04-14T14:20:42.140Z,12.03
2019-04-14T14:23:21.116Z,12.17
2019-04-14T14:26:03.503Z,11.83
2019-04-14T14:28:32.459Z,11.37
2019-04-14T14:31:01.361Z,11.43
2019-04-14T14:33:30.226Z,11.73
2019-04-14T14:35:58.901Z,10.20
2019-04-14T14:38:27.767Z,9.83
2019-04-14T14:40:58.372Z,10.97
2019-04-14T14:43:27.303Z,10.40
2019-04-14T14:46:13.733Z,10.50
2019-04-14T14:48:44.109Z,11.37
2019-04-14T14:51:14.609Z,10.10
2019-04-14T14:53:43.385Z,10.07
2019-04-14T14:56:12.173Z,10.33
2019-04-14T14:58:40.905Z,10.90
2019-04-14T15:01:09.875Z,11.43
2019-04-14T15:03:38.618Z,10.50
2019-04-14T15:06:07.868Z,10.33
2019-04-14T15:08:36.919Z,10.63
2019-04-14T15:11:05.697Z,10.37
2019-04-14T15:13:34.559Z,10.57
2019-04-14T15:16:03.500Z,10.57
2019-04-14T15:18:32.372Z,11.93
2019-04-14T15:21:01.444Z,12.70
2019-04-14T15:23:30.354Z,11.13
2019-04-14T15:25:59.174Z,16.97
2019-04-14T15:28:28.098Z,16.60
2019-04-14T15:30:56.875Z,11.20
2019-04-14T15:33:26.433Z,9.97
2019-04-14T15:35:55.267Z,14.53
2019-04-14T15:38:24.066Z,9.57
2019-04-14T15:40:52.789Z,8.87
2019-04-14T15:43:21.691Z,9.57
2019-04-14T15:45:50.465Z,10.13
2019-04-14T15:48:19.398Z,9.50
2019-04-14T15:50:48.171Z,9.70
2019-04-14T15:53:17.029Z,9.93
2019-04-14T15:55:45.938Z,9.03
2019-04-14T15:58:16.355Z,8.80
2019-04-14T16:00:58.736Z,9.93
2019-04-14T16:03:31.812Z,8.93
2019-04-14T16:06:02.231Z,9.47
2019-04-14T16:08:32.738Z,11.70
2019-04-14T16:11:21.320Z,9.60
2019-04-14T16:13:53.036Z,8.80
2019-04-14T16:16:39.969Z,8.53
2019-04-14T16:19:10.455Z,8.97
2019-04-14T16:21:40.865Z,9.50
2019-04-14T16:24:09.723Z,9.50
2019-04-14T16:26:48.975Z,9.07
2019-04-14T16:29:22.163Z,8.13
2019-04-14T16:31:56.060Z,8.73
2019-04-14T16:34:29.155Z,7.70
2019-04-14T16:36:58.256Z,8.20
2019-04-14T16:39:27.119Z,7.87
2019-04-14T16:41:56.057Z,8.70
2019-04-14T16:44:24.897Z,9.33
2019-04-14T16:46:53.810Z,10.07
2019-04-14T16:49:22.611Z,8.40
2019-04-14T16:51:53.224Z,8.93
2019-04-14T16:54:23.533Z,9.40
2019-04-14T16:56:59.522Z,8.43
2019-04-14T16:59:28.302Z,8.80
2019-04-14T17:02:05.167Z,7.80
2019-04-14T17:04:27.808Z,7.67
2019-04-14T17:06:56.679Z,7.87
2019-04-14T17:09:25.460Z,7.63
2019-04-14T17:11:54.454Z,7.07
2019-04-14T17:14:36.471Z,7.30
2019-04-14T17:17:10.151Z,7.00
2019-04-14T17:19:43.362Z,7.27
2019-04-14T17:22:20.414Z,6.73
2019-04-14T17:25:07.664Z,7.20
2019-04-14T17:27:38.378Z,7.47
2019-04-14T17:30:15.268Z,6.67
2019-04-14T17:32:46.943Z,6.57
2019-04-14T17:35:18.245Z,8.20
2019-04-14T17:37:54.876Z,9.63
2019-04-14T17:40:25.439Z,16.73
2019-04-14T17:42:55.957Z,15.47
2019-04-14T17:45:38.163Z,9.93
2019-04-14T17:48:25.109Z,12.37
2019-04-14T17:50:55.581Z,12.70
2019-04-14T17:53:31.839Z,19.43
2019-04-14T17:56:02.290Z,41.90
2019-04-14T17:58:39.253Z,41.03
2019-04-14T18:01:25.806Z,47.00
2019-04-14T18:04:04.983Z,63.27
2019-04-14T18:06:35.549Z,65.30
2019-04-14T18:09:16.951Z,40.17
2019-04-14T18:11:53.459Z,47.80
2019-04-14T18:14:32.445Z,37.80
2019-04-14T18:17:19.908Z,38.60
2019-04-14T18:19:51.800Z,24.03
2019-04-14T18:22:20.606Z,22.47
2019-04-14T18:24:49.611Z,15.70
2019-04-14T18:27:18.502Z,10.13
2019-04-14T18:29:48.984Z,12.20
2019-04-14T18:32:25.301Z,13.60
2019-04-14T18:35:11.783Z,25.07
2019-04-14T18:37:42.284Z,17.30
2019-04-14T18:40:12.817Z,16.83
2019-04-14T18:42:52.349Z,15.70
2019-04-14T18:45:32.120Z,12.80
2019-04-14T18:48:17.854Z,11.07
2019-04-14T18:50:57.167Z,9.13
2019-04-14T18:53:30.479Z,8.33
2019-04-14T18:56:06.857Z,11.43
2019-04-14T18:58:43.158Z,13.10
2019-04-14T19:01:22.445Z,10.07
2019-04-14T19:03:51.309Z,9.73
2019-04-14T19:06:20.110Z,9.77
2019-04-14T19:08:51.121Z,11.40
2019-04-14T19:11:24.931Z,8.10
2019-04-14T19:13:58.724Z,12.93
2019-04-14T19:16:39.170Z,13.53
2019-04-14T19:19:04.130Z,9.67
2019-04-14T19:21:33.041Z,16.00
2019-04-14T19:24:01.994Z,14.87
2019-04-14T19:26:31.425Z,17.90
2019-04-14T19:29:00.199Z,18.23
2019-04-14T19:31:29.161Z,16.83
2019-04-14T19:33:58.004Z,15.20
2019-04-14T19:36:27.036Z,18.37
2019-04-14T19:38:55.833Z,16.50
2019-04-14T19:41:24.709Z,14.57
2019-04-14T19:43:53.494Z,10.17
2019-04-14T19:46:22.577Z,10.33
2019-04-14T19:48:51.512Z,8.70
2019-04-14T19:51:20.278Z,8.13
2019-04-14T19:53:49.151Z,8.60
2019-04-14T19:56:18.042Z,8.53
2019-04-14T19:58:46.938Z,8.77
2019-04-14T20:01:15.950Z,9.03
2019-04-14T20:03:44.727Z,9.43
2019-04-14T20:06:13.415Z,9.33
2019-04-14T20:08:42.510Z,9.93
2019-04-14T20:11:11.887Z,8.37
2019-04-14T20:13:42.695Z,8.10
2019-04-14T20:16:30.436Z,8.37
2019-04-14T20:19:10.341Z,8.37
2019-04-14T20:21:45.224Z,7.20
2019-04-14T20:24:18.508Z,7.93
2019-04-14T20:26:49.244Z,8.03
2019-04-14T20:29:25.331Z,7.90
2019-04-14T20:32:02.326Z,8.33
2019-04-14T20:34:31.361Z,8.17
2019-04-14T20:37:00.083Z,8.10
2019-04-14T20:39:29.586Z,9.33
2019-04-14T20:41:58.599Z,9.30
2019-04-14T20:44:27.507Z,9.60
2019-04-14T20:46:56.447Z,8.80
2019-04-14T20:49:25.185Z,8.67
2019-04-14T20:51:54.013Z,10.93
2019-04-14T20:54:22.881Z,15.87
2019-04-14T20:56:51.752Z,17.73
2019-04-14T20:59:20.656Z,12.30
2019-04-14T21:01:51.235Z,10.03
2019-04-14T21:04:27.744Z,8.80
2019-04-14T21:07:14.755Z,9.17
2019-04-14T21:09:45.266Z,8.83
2019-04-14T21:12:21.682Z,9.43
2019-04-14T21:14:56.566Z,8.53
2019-04-14T21:17:29.510Z,8.47
2019-04-14T21:20:16.750Z,8.73
2019-04-14T21:22:56.590Z,8.73
2019-04-14T21:25:33.033Z,9.30
2019-04-14T21:28:09.471Z,9.97
2019-04-14T21:30:56.466Z,9.17
2019-04-14T21:33:43.028Z,8.53
2019-04-14T21:36:14.328Z,7.87
2019-04-14T21:38:47.971Z,8.33
2019-04-14T21:41:21.101Z,7.60
2019-04-14T21:43:49.967Z,7.57
2019-04-14T21:46:18.713Z,8.23
2019-04-14T21:48:47.542Z,8.07
2019-04-14T21:51:16.297Z,8.23
2019-04-14T21:53:45.852Z,7.63
2019-04-14T21:56:14.747Z,7.97
2019-04-14T21:58:45.219Z,7.87
2019-04-14T22:01:37.715Z,7.17
2019-04-14T22:04:08.156Z,7.67
2019-04-14T22:06:41.425Z,7.97
2019-04-14T22:09:11.858Z,8.63
2019-04-14T22:11:40.702Z,8.03
2019-04-14T22:14:09.748Z,7.97
2019-04-14T22:16:38.556Z,9.57
2019-04-14T22:19:08.028Z,9.80
2019-04-14T22:21:37.044Z,8.27
2019-04-14T22:24:05.930Z,7.73
2019-04-14T22:26:34.789Z,6.97
2019-04-14T22:29:03.737Z,7.00
2019-04-14T22:31:32.652Z,6.83
2019-04-14T22:34:01.470Z,7.10
2019-04-14T22:36:30.286Z,8.10
2019-04-14T22:38:59.146Z,8.30
2019-04-14T22:41:27.952Z,9.33
2019-04-14T22:43:56.886Z,10.87
2019-04-14T22:46:25.783Z,10.60
2019-04-14T22:48:54.491Z,11.07
2019-04-14T22:51:23.279Z,10.80
2019-04-14T22:53:51.938Z,8.77
2019-04-14T22:56:20.655Z,8.50
2019-04-14T22:58:49.493Z,9.57
2019-04-14T23:01:22.916Z,8.70
2019-04-14T23:03:53.335Z,8.63
2019-04-14T23:06:40.204Z,8.17
2019-04-14T23:09:26.003Z,8.87
2019-04-14T23:11:56.582Z,8.40
2019-04-14T23:14:41.945Z,8.50
2019-04-14T23:17:12.333Z,8.30
2019-04-14T23:19:42.626Z,8.67
2019-04-14T23:22:29.956Z,8.60
2019-04-14T23:25:02.089Z,8.23
2019-04-14T23:27:31.281Z,9.10
2019-04-14T23:30:01.710Z,8.77
2019-04-14T23:32:30.955Z,9.03
2019-04-14T23:34:59.634Z,9.43
2019-04-14T23:37:28.411Z,9.53
2019-04-14T23:39:57.222Z,8.67
2019-04-14T23:42:26.056Z,9.17
2019-04-14T23:44:54.917Z,8.27
2019-04-14T23:47:23.705Z,8.07
2019-04-14T23:49:52.508Z,8.83
2019-04-14T23:52:21.279Z,8.77
2019-04-14T23:54:50.015Z,8.27
2019-04-14T23:57:18.716Z,8.73
2019-04-14T23:59:47.549Z,8.60
